Time;durP1;ratioP1;P1;durP2;ratioP2;P2;SDS_P1;SDS_P2;PMS_P1;PMS_P2;Temp;Humidity;BMP_temperature;BMP_pressure;BME280_temperature;BME280_humidity;BME280_pressure;Samples;Min_cycle;Max_cycle;Signal;HPM_P1;HPM_P2
2020/12/30 00:02:07;;;;;;;4.40;2.50;;;10.50;65.40;;;;;;5101851;28;20040;-65
2020/12/30 00:04:33;;;;;;;3.85;2.67;;;10.50;65.70;;;;;;5101843;28;20036;-65
2020/12/30 00:06:59;;;;;;;3.42;2.72;;;10.50;65.70;;;;;;5101683;28;20084;-64
2020/12/30 00:09:24;;;;;;;3.35;2.30;;;10.50;65.50;;;;;;5101786;28;20075;-67
2020/12/30 00:11:50;;;;;;;4.80;2.47;;;10.50;65.60;;;;;;5101786;28;20042;-67
2020/12/30 00:14:16;;;;;;;3.83;2.25;;;10.50;65.60;;;;;;5101768;28;20308;-67
2020/12/30 00:16:41;;;;;;;4.55;2.70;;;10.50;65.70;;;;;;5101716;28;20020;-65
2020/12/30 00:19:07;;;;;;;4.60;2.63;;;10.40;65.80;;;;;;5117497;28;20320;-64
2020/12/30 00:21:33;;;;;;;4.57;2.50;;;10.40;65.90;;;;;;5101683;28;20016;-64
2020/12/30 00:23:59;;;;;;;3.45;2.60;;;10.40;65.90;;;;;;5101638;28;20012;-67
2020/12/30 00:26:24;;;;;;;5.40;3.30;;;10.40;65.90;;;;;;5101623;28;20031;-67
2020/12/30 00:28:50;;;;;;;4.50;2.80;;;10.40;65.90;;;;;;5101590;28;20027;-67
2020/12/30 00:31:16;;;;;;;4.95;2.88;;;10.50;65.90;;;;;;5102790;28;20027;-66
2020/12/30 00:33:41;;;;;;;3.53;2.47;;;10.40;65.80;;;;;;5105210;28;20430;-68
2020/12/30 00:36:08;;;;;;;5.95;2.65;;;10.50;65.80;;;;;;5105205;28;20086;-62
2020/12/30 00:38:34;;;;;;;3.67;2.17;;;10.50;65.80;;;;;;5105116;28;20026;-67
2020/12/30 00:41:00;;;;;;;4.32;2.95;;;10.50;65.70;;;;;;5105167;28;20249;-68
2020/12/30 00:43:25;;;;;;;4.25;2.63;;;10.50;65.70;;;;;;5104971;28;20311;-67
2020/12/30 00:45:51;;;;;;;3.65;2.75;;;10.50;65.70;;;;;;5104961;28;20026;-66
2020/12/30 00:48:17;;;;;;;3.47;2.50;;;10.50;65.70;;;;;;5104865;28;20071;-63
2020/12/30 00:50:43;;;;;;;3.53;2.28;;;10.50;65.80;;;;;;5104826;28;20061;-65
2020/12/30 00:53:08;;;;;;;4.30;2.63;;;10.50;65.90;;;;;;5104796;28;20024;-67
2020/12/30 00:55:34;;;;;;;5.32;3.05;;;10.40;65.80;;;;;;5104797;28;20421;-68
2020/12/30 00:58:00;;;;;;;5.38;3.05;;;10.40;66.00;;;;;;5104731;28;20089;-65
2020/12/30 01:00:25;;;;;;;4.20;2.78;;;10.50;65.70;;;;;;5104605;28;20027;-68
2020/12/30 01:02:51;;;;;;;5.00;2.85;;;10.50;65.60;;;;;;5104643;28;20016;-67
2020/12/30 01:05:17;;;;;;;5.88;3.15;;;10.50;65.60;;;;;;5104601;28;20354;-64
2020/12/30 01:07:42;;;;;;;4.90;3.33;;;10.50;65.60;;;;;;5104276;28;20062;-66
2020/12/30 01:10:08;;;;;;;4.50;2.80;;;10.50;65.60;;;;;;5104583;28;20346;-66
2020/12/30 01:12:37;;;;;;;4.55;3.05;;;10.50;65.70;;;;;;5104449;28;20085;-68
2020/12/30 01:15:04;;;;;;;4.22;2.78;;;10.50;66.40;;;;;;5104435;28;20020;-65
2020/12/30 01:17:30;;;;;;;2.85;2.45;;;10.50;65.60;;;;;;5104366;28;20238;-68
2020/12/30 01:19:56;;;;;;;4.10;2.63;;;10.50;65.80;;;;;;5104297;28;20043;-65
2020/12/30 01:22:21;;;;;;;3.83;2.67;;;10.50;65.80;;;;;;5104233;28;20062;-67
2020/12/30 01:24:47;;;;;;;3.13;2.15;;;10.50;65.80;;;;;;5104235;28;20069;-62
2020/12/30 01:27:13;;;;;;;4.97;2.90;;;10.50;66.00;;;;;;5104068;28;20058;-66
2020/12/30 01:29:38;;;;;;;4.38;2.67;;;10.50;65.90;;;;;;5104101;28;20016;-66
2020/12/30 01:32:04;;;;;;;4.25;2.60;;;10.50;65.90;;;;;;5104117;28;20034;-67
2020/12/30 01:34:30;;;;;;;3.53;2.53;;;10.50;65.90;;;;;;5104047;28;20023;-64
2020/12/30 01:36:56;;;;;;;4.40;2.50;;;10.50;65.80;;;;;;5103977;28;20027;-67
2020/12/30 01:39:21;;;;;;;4.55;2.85;;;10.50;65.60;;;;;;5104012;28;20322;-67
2020/12/30 01:41:48;;;;;;;4.93;3.03;;;10.50;65.70;;;;;;5103786;28;20070;-63
2020/12/30 01:44:14;;;;;;;5.22;2.72;;;10.50;65.50;;;;;;5104104;28;20078;-66
2020/12/30 01:46:41;;;;;;;3.75;2.80;;;10.50;65.60;;;;;;5103664;28;20016;-68
2020/12/30 01:49:20;;;;;;;3.55;2.58;;;10.50;65.70;;;;;;5103714;28;20020;-66
2020/12/30 01:51:47;;;;;;;5.88;2.88;;;10.50;65.60;;;;;;5103670;28;20065;-67
2020/12/30 01:54:14;;;;;;;4.30;2.85;;;10.50;65.80;;;;;;5103699;28;20023;-67
2020/12/30 01:56:41;;;;;;;3.85;2.38;;;10.50;65.70;;;;;;5103630;28;20122;-67
2020/12/30 01:59:09;;;;;;;4.28;2.70;;;10.50;65.70;;;;;;5103585;28;20031;-66
2020/12/30 02:01:37;;;;;;;3.80;2.73;;;10.50;65.70;;;;;;5103582;28;20080;-68
2020/12/30 02:04:05;;;;;;;4.50;2.72;;;10.50;65.70;;;;;;5103400;28;20036;-65
2020/12/30 02:06:32;;;;;;;4.60;2.67;;;10.50;65.80;;;;;;5103274;28;20032;-68
2020/12/30 02:08:58;;;;;;;3.50;2.53;;;10.50;65.70;;;;;;5103290;28;20347;-67
2020/12/30 02:11:26;;;;;;;3.72;2.67;;;10.50;65.60;;;;;;5119133;28;20212;-67
2020/12/30 02:14:05;;;;;;;4.18;2.30;;;10.50;65.70;;;;;;5103246;28;20008;-67
2020/12/30 02:16:45;;;;;;;5.28;2.70;;;10.50;65.60;;;;;;5103260;28;20061;-66
2020/12/30 02:19:11;;;;;;;4.05;2.70;;;10.50;65.70;;;;;;5103218;28;20019;-65
2020/12/30 02:21:37;;;;;;;3.75;2.45;;;10.60;65.60;;;;;;5103176;28;20024;-64
2020/12/30 02:24:03;;;;;;;3.50;2.38;;;10.50;65.50;;;;;;5103083;28;20024;-66
2020/12/30 02:26:29;;;;;;;3.42;2.65;;;10.50;65.70;;;;;;5103095;28;20016;-64
2020/12/30 02:28:54;;;;;;;4.65;2.70;;;10.50;65.80;;;;;;5102895;28;20044;-67
2020/12/30 02:31:20;;;;;;;4.72;2.47;;;10.50;65.70;;;;;;5103036;28;20245;-67
2020/12/30 02:33:46;;;;;;;3.20;2.47;;;10.50;65.80;;;;;;5102950;28;20079;-66
2020/12/30 02:36:11;;;;;;;3.00;2.50;;;10.50;65.80;;;;;;5103168;28;20028;-67
2020/12/30 02:38:37;;;;;;;4.93;2.80;;;10.50;65.80;;;;;;5102910;28;20031;-63
2020/12/30 02:41:05;;;;;;;4.97;2.95;;;10.50;65.90;;;;;;5102815;28;20020;-65
2020/12/30 02:43:31;;;;;;;5.30;2.70;;;10.50;65.90;;;;;;5102800;28;20238;-65
2020/12/30 02:45:57;;;;;;;4.07;2.40;;;10.50;65.60;;;;;;5102743;28;20024;-67
2020/12/30 02:48:22;;;;;;;3.88;2.78;;;10.50;65.60;;;;;;5102626;28;20449;-65
2020/12/30 02:50:48;;;;;;;3.72;2.55;;;10.50;65.60;;;;;;5102661;28;20024;-67
2020/12/30 02:53:14;;;;;;;3.67;2.45;;;10.50;65.70;;;;;;5102416;28;20019;-66
2020/12/30 02:55:40;;;;;;;2.85;2.55;;;10.50;65.60;;;;;;5102398;28;20367;-68
2020/12/30 02:58:06;;;;;;;3.13;2.17;;;10.50;65.80;;;;;;5102535;28;20019;-65
2020/12/30 03:00:31;;;;;;;4.63;2.63;;;10.50;65.70;;;;;;5102519;28;20026;-67
2020/12/30 03:02:57;;;;;;;3.85;2.42;;;10.60;65.90;;;;;;5102520;28;20031;-63
2020/12/30 03:05:23;;;;;;;2.35;2.08;;;10.50;65.90;;;;;;5102427;28;20020;-64
2020/12/30 03:07:49;;;;;;;2.80;2.30;;;10.50;65.90;;;;;;5102115;28;20039;-67
2020/12/30 03:10:15;;;;;;;5.50;2.70;;;10.50;66.00;;;;;;5102390;28;20061;-66
2020/12/30 03:12:41;;;;;;;5.93;2.88;;;10.50;66.10;;;;;;5102316;28;20331;-68
2020/12/30 03:15:07;;;;;;;4.22;2.80;;;10.50;65.90;;;;;;5102326;28;20091;-65
2020/12/30 03:17:32;;;;;;;4.47;2.20;;;10.50;65.90;;;;;;5102267;28;20028;-66
2020/12/30 03:19:58;;;;;;;3.70;2.45;;;10.50;66.00;;;;;;5102298;28;20497;-67
2020/12/30 03:22:24;;;;;;;3.90;2.47;;;10.50;66.00;;;;;;5102246;28;20019;-66
2020/12/30 03:24:49;;;;;;;4.45;2.83;;;10.50;66.10;;;;;;5102284;28;20031;-67
2020/12/30 03:27:15;;;;;;;5.70;2.75;;;10.50;66.20;;;;;;5102146;28;20024;-66
2020/12/30 03:29:41;;;;;;;5.43;2.40;;;10.50;66.10;;;;;;5102218;28;20016;-66
2020/12/30 03:32:06;;;;;;;5.07;3.10;;;10.50;66.10;;;;;;5102214;28;20028;-66
2020/12/30 03:34:32;;;;;;;4.95;2.97;;;10.50;66.20;;;;;;5102174;28;20050;-64
2020/12/30 03:36:58;;;;;;;3.45;2.72;;;10.50;66.40;;;;;;5102135;28;20053;-67
2020/12/30 03:39:24;;;;;;;3.33;2.28;;;10.50;66.20;;;;;;5102079;28;20020;-66
2020/12/30 03:41:49;;;;;;;3.63;2.70;;;10.50;66.10;;;;;;5102052;28;20024;-66
2020/12/30 03:44:15;;;;;;;3.03;2.20;;;10.50;66.00;;;;;;5102089;28;20043;-66
2020/12/30 03:46:41;;;;;;;3.97;2.33;;;10.50;66.10;;;;;;5101973;28;20324;-66
2020/12/30 03:49:06;;;;;;;4.38;2.72;;;10.50;66.00;;;;;;5102002;28;20024;-68
2020/12/30 03:51:32;;;;;;;4.82;2.13;;;10.50;66.10;;;;;;5102026;28;20460;-65
2020/12/30 03:53:58;;;;;;;3.63;2.30;;;10.60;66.30;;;;;;5101962;28;20035;-67
2020/12/30 03:56:23;;;;;;;4.43;2.58;;;10.50;66.10;;;;;;5101920;28;20026;-66
2020/12/30 03:58:49;;;;;;;3.22;2.40;;;10.50;66.30;;;;;;5101910;28;20020;-66
2020/12/30 04:01:15;;;;;;;3.88;2.70;;;10.50;66.30;;;;;;5101905;28;20347;-67
2020/12/30 04:03:40;;;;;;;4.53;2.40;;;10.50;66.40;;;;;;5101879;28;20020;-67
2020/12/30 04:06:06;;;;;;;5.45;2.58;;;10.50;66.30;;;;;;5102851;28;20030;-66
2020/12/30 04:08:32;;;;;;;3.72;2.40;;;10.50;66.10;;;;;;5105438;28;20340;-63
2020/12/30 04:10:58;;;;;;;3.05;2.30;;;10.50;66.10;;;;;;5105628;28;20066;-65
2020/12/30 04:13:23;;;;;;;3.97;2.67;;;10.50;66.20;;;;;;5105642;28;20079;-65
2020/12/30 04:15:49;;;;;;;4.38;2.03;;;10.50;66.30;;;;;;5105583;28;20072;-67
2020/12/30 04:18:15;;;;;;;3.53;2.35;;;10.50;66.30;;;;;;5105538;28;20023;-65
2020/12/30 04:20:40;;;;;;;3.17;1.80;;;10.50;66.40;;;;;;5105470;28;20047;-68
2020/12/30 04:23:06;;;;;;;4.63;2.35;;;10.50;66.40;;;;;;5105483;28;20211;-67
2020/12/30 04:25:32;;;;;;;3.10;2.45;;;10.60;66.30;;;;;;5105383;28;20248;-64
2020/12/30 04:27:58;;;;;;;4.43;2.45;;;10.60;66.30;;;;;;5105244;28;20339;-66
2020/12/30 04:30:23;;;;;;;2.60;1.92;;;10.60;66.00;;;;;;5105332;28;20067;-67
2020/12/30 04:32:49;;;;;;;4.97;2.60;;;10.60;66.40;;;;;;5105256;28;20371;-65
2020/12/30 04:35:15;;;;;;;5.45;2.22;;;10.50;66.10;;;;;;5105181;28;20326;-64
2020/12/30 04:37:41;;;;;;;3.17;2.40;;;10.60;66.30;;;;;;5105142;28;20020;-65
2020/12/30 04:40:07;;;;;;;3.22;2.30;;;10.50;66.30;;;;;;5105118;28;20027;-66
2020/12/30 04:42:35;;;;;;;3.13;1.85;;;10.50;66.40;;;;;;5105069;28;20079;-65
2020/12/30 04:45:07;;;;;;;4.85;2.50;;;10.50;66.40;;;;;;5105119;28;20304;-65
2020/12/30 04:47:33;;;;;;;4.20;2.45;;;10.50;66.40;;;;;;5104793;28;20217;-65
2020/12/30 04:50:01;;;;;;;2.88;2.22;;;10.50;66.50;;;;;;5104939;28;20196;-65
2020/12/30 04:52:27;;;;;;;3.47;2.13;;;10.50;66.30;;;;;;5104873;28;20020;-68
2020/12/30 04:54:54;;;;;;;3.20;1.90;;;10.60;66.40;;;;;;5103713;28;20016;-65
2020/12/30 04:57:42;;;;;;;4.07;2.40;;;10.60;66.30;;;;;;5104790;28;20267;-68
2020/12/30 05:00:08;;;;;;;4.03;2.28;;;10.60;66.50;;;;;;5104729;28;20028;-65
2020/12/30 05:02:35;;;;;;;3.55;2.35;;;10.60;66.40;;;;;;5104733;28;20046;-67
2020/12/30 05:05:01;;;;;;;3.38;2.60;;;10.60;66.60;;;;;;5104637;28;20028;-67
2020/12/30 05:07:31;;;;;;;3.67;2.30;;;10.60;66.60;;;;;;5104384;28;20373;-64
2020/12/30 05:09:57;;;;;;;3.13;2.17;;;10.60;66.40;;;;;;5104571;28;20351;-67
2020/12/30 05:12:24;;;;;;;3.15;2.28;;;10.60;66.30;;;;;;5104482;28;20009;-67
2020/12/30 05:14:50;;;;;;;4.57;2.80;;;10.60;66.30;;;;;;5104495;28;20020;-68
2020/12/30 05:17:17;;;;;;;5.40;2.50;;;10.60;66.40;;;;;;5103947;28;20023;-68
2020/12/30 05:19:44;;;;;;;4.03;2.22;;;10.60;66.40;;;;;;5104430;28;20024;-66
2020/12/30 05:22:21;;;;;;;3.85;2.60;;;10.60;66.40;;;;;;5104354;28;20015;-68
2020/12/30 05:24:48;;;;;;;2.33;1.90;;;10.60;66.60;;;;;;5104319;28;20054;-68
2020/12/30 05:27:15;;;;;;;2.95;2.00;;;10.60;66.40;;;;;;5104147;28;20332;-67
2020/12/30 05:29:45;;;;;;;3.53;2.05;;;10.60;66.40;;;;;;5104210;28;20075;-67
2020/12/30 05:32:10;;;;;;;4.13;2.17;;;10.60;66.40;;;;;;5104434;28;20016;-68
2020/12/30 05:34:36;;;;;;;2.60;1.92;;;10.60;66.60;;;;;;5104060;28;20203;-68
2020/12/30 05:37:02;;;;;;;4.57;2.20;;;10.60;66.30;;;;;;5103999;28;20028;-65
2020/12/30 05:39:32;;;;;;;4.28;2.20;;;10.60;66.40;;;;;;5103993;28;20114;-65
2020/12/30 05:42:13;;;;;;;2.80;1.85;;;10.60;66.40;;;;;;5103999;28;20030;-66
2020/12/30 05:44:41;;;;;;;2.88;2.05;;;10.60;66.30;;;;;;5103848;28;20020;-65
2020/12/30 05:47:17;;;;;;;2.85;1.98;;;10.60;66.40;;;;;;5103771;28;20016;-67
2020/12/30 05:49:45;;;;;;;3.92;2.30;;;10.60;66.50;;;;;;5103773;28;20019;-65
2020/12/30 05:52:19;;;;;;;3.50;2.38;;;10.60;66.40;;;;;;5103727;28;20016;-67
2020/12/30 05:54:59;;;;;;;2.45;2.25;;;10.60;66.30;;;;;;5103765;28;20327;-68
2020/12/30 05:57:30;;;;;;;4.47;2.33;;;10.60;66.50;;;;;;5103626;28;20024;-67
2020/12/30 06:00:07;;;;;;;4.22;2.10;;;10.60;66.40;;;;;;5103600;28;20016;-66
2020/12/30 06:02:34;;;;;;;3.45;2.40;;;10.60;66.40;;;;;;5103543;28;20023;-66
2020/12/30 06:05:20;;;;;;;3.55;2.15;;;10.60;66.40;;;;;;5103498;28;20024;-66
2020/12/30 06:07:51;;;;;;;3.05;1.98;;;10.60;66.50;;;;;;5103182;28;20394;-67
2020/12/30 06:10:19;;;;;;;5.35;2.70;;;10.60;66.50;;;;;;5103366;28;20051;-67
2020/12/30 06:12:47;;;;;;;3.28;2.10;;;10.60;66.40;;;;;;5103345;28;20100;-67
2020/12/30 06:15:24;;;;;;;3.70;2.08;;;10.60;66.60;;;;;;5103357;28;20027;-66
2020/12/30 06:17:56;;;;;;;3.08;2.13;;;10.60;66.50;;;;;;5103254;28;20031;-67
2020/12/30 06:20:24;;;;;;;2.72;2.05;;;10.60;66.50;;;;;;5103230;28;20083;-65
2020/12/30 06:22:55;;;;;;;4.40;2.10;;;10.60;66.50;;;;;;5103257;28;20020;-67
2020/12/30 06:25:29;;;;;;;3.05;2.08;;;10.60;66.50;;;;;;5103126;28;20255;-68
2020/12/30 06:27:56;;;;;;;2.88;2.13;;;10.60;66.60;;;;;;5102851;28;20027;-65
2020/12/30 06:30:23;;;;;;;3.92;2.10;;;10.60;66.60;;;;;;5102416;28;20208;-65
2020/12/30 06:32:49;;;;;;;3.05;2.55;;;10.60;66.40;;;;;;5102998;28;20016;-66
2020/12/30 06:35:26;;;;;;;3.75;2.22;;;10.60;66.40;;;;;;5102994;28;20073;-66
2020/12/30 06:37:52;;;;;;;6.10;2.35;;;10.60;66.40;;;;;;5102895;28;20095;-64
2020/12/30 06:40:22;;;;;;;4.05;2.35;;;10.60;66.50;;;;;;5102912;28;20031;-66
2020/12/30 06:42:55;;;;;;;3.35;2.42;;;10.70;66.50;;;;;;5102839;28;20028;-65
2020/12/30 06:45:42;;;;;;;2.67;2.22;;;10.60;66.40;;;;;;5102801;28;20020;-68
2020/12/30 06:48:12;;;;;;;3.72;2.17;;;10.60;66.40;;;;;;5102651;28;20034;-65
2020/12/30 06:50:39;;;;;;;2.95;2.17;;;10.60;66.50;;;;;;5102678;28;20328;-68
2020/12/30 06:53:24;;;;;;;2.95;2.20;;;10.60;66.70;;;;;;5102624;28;20047;-68
2020/12/30 06:55:51;;;;;;;4.28;2.40;;;10.60;66.50;;;;;;5102624;28;20346;-68
2020/12/30 06:58:49;;;;;;;2.65;2.00;;;10.60;66.70;;;;;;5102565;28;20032;-65
2020/12/30 07:01:19;;;;;;;3.33;2.33;;;10.60;66.70;;;;;;5118585;28;20061;-67
2020/12/30 07:03:49;;;;;;;2.42;1.85;;;10.60;66.70;;;;;;5102499;28;20035;-65
2020/12/30 07:06:23;;;;;;;3.22;2.25;;;10.60;66.70;;;;;;5102456;28;20023;-67
2020/12/30 07:08:50;;;;;;;4.85;2.83;;;10.60;66.70;;;;;;5102198;28;20040;-67
2020/12/30 07:11:48;;;;;;;2.70;2.03;;;10.60;66.70;;;;;;5102383;28;20034;-66
2020/12/30 07:14:14;;;;;;;3.80;2.28;;;10.60;66.70;;;;;;5102351;28;20016;-67
2020/12/30 07:16:45;;;;;;;3.80;2.40;;;10.60;66.70;;;;;;5102339;28;20013;-66
2020/12/30 07:19:16;;;;;;;3.70;2.25;;;10.60;66.70;;;;;;5102358;28;20367;-68
2020/12/30 07:21:53;;;;;;;3.10;2.50;;;10.60;66.80;;;;;;5102286;28;20028;-64
2020/12/30 07:24:24;;;;;;;4.15;2.13;;;10.60;66.50;;;;;;5102247;28;20049;-65
2020/12/30 07:26:53;;;;;;;3.75;2.22;;;10.60;66.70;;;;;;5102230;28;20046;-67
2020/12/30 07:29:20;;;;;;;2.25;2.05;;;10.60;66.60;;;;;;5102227;28;20020;-67
2020/12/30 07:31:55;;;;;;;3.20;2.20;;;10.60;66.60;;;;;;5102199;28;20360;-66
2020/12/30 07:34:23;;;;;;;4.25;2.20;;;10.60;66.60;;;;;;5102216;28;20020;-67
2020/12/30 07:36:49;;;;;;;4.15;2.42;;;10.60;66.50;;;;;;5102097;28;20019;-65
2020/12/30 07:39:21;;;;;;;2.40;1.90;;;10.60;66.30;;;;;;5102096;28;20050;-67
2020/12/30 07:41:47;;;;;;;3.35;2.45;;;10.60;66.50;;;;;;5106003;28;20085;-68
2020/12/30 07:44:13;;;;;;;3.20;2.10;;;10.70;66.60;;;;;;5106532;28;20036;-64
2020/12/30 07:46:40;;;;;;;2.63;2.15;;;10.60;66.60;;;;;;5106235;28;20024;-67
2020/12/30 07:49:07;;;;;;;3.83;2.42;;;10.60;66.60;;;;;;5106279;28;20058;-66
2020/12/30 07:51:33;;;;;;;3.05;2.10;;;10.70;66.70;;;;;;5106059;28;20095;-65
2020/12/30 07:53:58;;;;;;;3.33;2.60;;;10.60;66.60;;;;;;5106018;28;20020;-66
2020/12/30 07:56:25;;;;;;;3.05;1.98;;;10.60;66.50;;;;;;5106011;28;20012;-65
2020/12/30 07:58:50;;;;;;;2.92;1.75;;;10.60;66.60;;;;;;5106052;28;20024;-67
2020/12/30 08:01:18;;;;;;;3.03;2.08;;;10.60;66.60;;;;;;5105909;28;20355;-67
2020/12/30 08:03:44;;;;;;;3.03;1.90;;;10.60;66.80;;;;;;5105922;28;20177;-67
2020/12/30 08:06:10;;;;;;;3.30;1.90;;;10.60;66.80;;;;;;5105819;28;20046;-65
2020/12/30 08:08:43;;;;;;;3.67;2.42;;;10.60;66.70;;;;;;5105546;28;20072;-66
2020/12/30 08:11:09;;;;;;;3.72;2.50;;;10.60;66.70;;;;;;5105776;28;20019;-67
2020/12/30 08:13:35;;;;;;;3.85;2.67;;;10.60;66.70;;;;;;5105696;28;20064;-67
2020/12/30 08:16:00;;;;;;;3.05;1.77;;;10.70;66.70;;;;;;5105564;28;20209;-67
2020/12/30 08:18:26;;;;;;;3.03;2.33;;;10.70;66.70;;;;;;5105591;28;20052;-67
2020/12/30 08:20:52;;;;;;;2.97;2.40;;;10.70;66.80;;;;;;5105560;28;20034;-63
2020/12/30 08:23:18;;;;;;;2.92;2.03;;;10.70;66.60;;;;;;5105479;28;20039;-64
2020/12/30 08:25:50;;;;;;;2.88;2.10;;;10.70;66.50;;;;;;5105460;28;20079;-66
2020/12/30 08:28:16;;;;;;;3.72;2.05;;;10.60;66.70;;;;;;5105331;28;20019;-67
2020/12/30 08:30:43;;;;;;;3.60;2.10;;;10.70;66.50;;;;;;5105292;28;20378;-64
2020/12/30 08:33:13;;;;;;;2.85;2.15;;;10.70;66.70;;;;;;5105202;28;20054;-67
2020/12/30 08:36:00;;;;;;;2.13;1.92;;;10.60;66.70;;;;;;5105083;28;20016;-67
2020/12/30 08:38:30;;;;;;;4.00;2.08;;;10.70;66.70;;;;;;5105178;28;20016;-67
2020/12/30 08:40:58;;;;;;;3.75;1.90;;;10.70;66.40;;;;;;5105147;28;20019;-67
2020/12/30 08:43:44;;;;;;;2.33;1.90;;;10.70;66.40;;;;;;5105079;28;20020;-68
2020/12/30 08:46:18;;;;;;;3.53;2.17;;;10.70;66.50;;;;;;5105027;28;20020;-68
2020/12/30 08:48:49;;;;;;;2.58;2.10;;;10.80;66.40;;;;;;5104835;28;20060;-67
2020/12/30 08:51:25;;;;;;;2.78;1.92;;;10.80;66.50;;;;;;5120319;28;20016;-67
2020/12/30 08:53:51;;;;;;;2.40;1.92;;;10.80;66.50;;;;;;5104764;28;20016;-67
2020/12/30 08:56:19;;;;;;;2.38;1.80;;;10.70;66.70;;;;;;5104827;28;20397;-66
2020/12/30 08:58:52;;;;;;;2.55;1.90;;;10.70;66.80;;;;;;5104813;28;20019;-68
2020/12/30 09:01:23;;;;;;;5.00;2.25;;;10.70;66.50;;;;;;5104658;28;20320;-68
2020/12/30 09:03:48;;;;;;;1.75;1.55;;;10.70;66.50;;;;;;5104703;28;20050;-67
2020/12/30 09:06:30;;;;;;;2.58;1.75;;;10.70;66.70;;;;;;5120446;28;20308;-69
2020/12/30 09:09:14;;;;;;;3.22;2.10;;;10.70;66.60;;;;;;5104547;28;20260;-67
2020/12/30 09:11:50;;;;;;;3.65;1.80;;;10.70;66.60;;;;;;5104547;28;20027;-67
2020/12/30 09:14:20;;;;;;;3.78;2.10;;;10.80;66.30;;;;;;5104525;28;20035;-67
2020/12/30 09:17:00;;;;;;;2.38;1.77;;;10.80;66.50;;;;;;5104709;28;20015;-67
2020/12/30 09:19:27;;;;;;;2.20;1.73;;;10.80;66.40;;;;;;5104369;28;20016;-66
2020/12/30 09:22:11;;;;;;;2.78;2.25;;;10.80;66.50;;;;;;5104312;28;20355;-65
2020/12/30 09:24:42;;;;;;;2.50;1.90;;;10.80;66.60;;;;;;5104328;28;20550;-66
2020/12/30 09:27:20;;;;;;;2.72;2.00;;;10.80;66.30;;;;;;5104207;28;20053;-64
2020/12/30 09:30:02;;;;;;;2.75;1.90;;;10.80;66.50;;;;;;5104226;28;20019;-66
2020/12/30 09:32:27;;;;;;;4.60;2.72;;;10.80;66.40;;;;;;5104151;28;20227;-64
2020/12/30 09:35:05;;;;;;;3.20;2.15;;;10.80;66.60;;;;;;5104096;28;20020;-66
2020/12/30 09:37:31;;;;;;;2.25;1.67;;;10.80;66.50;;;;;;5104105;28;20062;-67
2020/12/30 09:40:04;;;;;;;3.95;2.08;;;10.90;66.40;;;;;;5119834;28;20052;-65
2020/12/30 09:42:30;;;;;;;2.70;1.90;;;10.90;66.40;;;;;;5104216;28;20304;-68
2020/12/30 09:44:55;;;;;;;2.53;1.77;;;10.90;66.00;;;;;;5103907;28;20036;-67
2020/12/30 09:47:21;;;;;;;1.50;1.38;;;10.90;66.10;;;;;;5103786;28;20023;-67
2020/12/30 09:49:47;;;;;;;3.08;2.33;;;11.00;66.10;;;;;;5103829;28;20028;-64
2020/12/30 09:52:13;;;;;;;2.65;1.90;;;11.00;65.90;;;;;;5103749;28;20052;-65
2020/12/30 09:54:38;;;;;;;3.65;2.25;;;10.90;66.10;;;;;;5103729;28;20299;-66
2020/12/30 09:57:04;;;;;;;3.08;1.90;;;10.90;66.50;;;;;;5103635;28;20019;-65
2020/12/30 09:59:30;;;;;;;2.55;2.13;;;10.90;66.60;;;;;;5103587;28;20304;-67
2020/12/30 10:01:55;;;;;;;2.80;2.10;;;10.90;66.80;;;;;;5103535;28;20227;-66
2020/12/30 10:04:21;;;;;;;3.10;2.08;;;10.90;66.30;;;;;;5103491;28;20023;-65
2020/12/30 10:06:47;;;;;;;2.20;2.00;;;10.90;66.50;;;;;;5103277;28;20056;-65
2020/12/30 10:09:14;;;;;;;2.80;2.00;;;10.90;66.60;;;;;;5103377;28;20035;-64
2020/12/30 10:11:41;;;;;;;3.00;2.70;;;10.90;66.50;;;;;;5119184;28;20016;-67
2020/12/30 10:14:07;;;;;;;3.35;1.95;;;10.90;66.60;;;;;;5103326;28;20035;-66
2020/12/30 10:16:33;;;;;;;2.95;2.20;;;10.90;66.40;;;;;;5103309;28;20028;-65
2020/12/30 10:19:00;;;;;;;3.35;2.25;;;10.90;66.20;;;;;;5119096;28;20215;-67
2020/12/30 10:21:32;;;;;;;3.45;1.88;;;11.00;66.00;;;;;;5103193;28;20212;-67
2020/12/30 10:23:58;;;;;;;2.45;2.00;;;11.00;66.40;;;;;;5103146;28;20028;-65
2020/12/30 10:26:24;;;;;;;2.63;1.92;;;10.90;66.20;;;;;;5103152;28;20016;-66
2020/12/30 10:28:50;;;;;;;2.83;2.00;;;10.90;66.60;;;;;;5102991;28;20054;-67
2020/12/30 10:31:16;;;;;;;3.40;2.17;;;10.90;66.60;;;;;;5118882;28;20062;-66
2020/12/30 10:33:42;;;;;;;2.95;1.90;;;10.90;66.70;;;;;;5102995;28;20239;-67
2020/12/30 10:36:08;;;;;;;2.60;1.92;;;10.80;66.60;;;;;;5118733;28;20233;-63
2020/12/30 10:38:34;;;;;;;2.63;2.15;;;10.80;66.90;;;;;;5102869;28;20328;-67
2020/12/30 10:41:01;;;;;;;2.85;2.05;;;10.80;66.80;;;;;;5102875;28;20020;-66
2020/12/30 10:43:26;;;;;;;2.92;2.00;;;10.90;66.70;;;;;;5102850;28;20043;-66
2020/12/30 10:45:52;;;;;;;2.17;1.98;;;10.80;66.60;;;;;;5118568;28;20411;-64
2020/12/30 10:48:18;;;;;;;2.88;2.10;;;10.90;66.60;;;;;;5102625;28;20100;-67
2020/12/30 10:50:44;;;;;;;2.53;1.88;;;10.90;66.70;;;;;;5102690;28;20023;-65
2020/12/30 10:53:09;;;;;;;2.75;1.90;;;10.90;66.80;;;;;;5102666;28;20023;-66
2020/12/30 10:55:35;;;;;;;3.83;2.63;;;10.90;66.80;;;;;;5118374;28;20064;-66
2020/12/30 10:58:01;;;;;;;2.38;1.70;;;10.80;66.60;;;;;;5118409;28;20245;-64
2020/12/30 11:00:27;;;;;;;2.40;2.15;;;10.90;66.90;;;;;;5102554;28;20028;-67
2020/12/30 11:02:53;;;;;;;3.28;2.20;;;10.80;66.90;;;;;;5102550;28;20158;-66
2020/12/30 11:05:19;;;;;;;2.40;2.13;;;10.80;66.90;;;;;;5102484;28;20019;-68
2020/12/30 11:07:44;;;;;;;2.63;1.88;;;10.90;66.90;;;;;;5102199;28;20064;-67
2020/12/30 11:10:11;;;;;;;2.08;1.80;;;10.90;66.70;;;;;;5102474;28;20083;-66
2020/12/30 11:12:37;;;;;;;2.80;1.92;;;10.90;66.70;;;;;;5102362;28;20093;-65
2020/12/30 11:15:07;;;;;;;2.47;1.95;;;10.90;66.80;;;;;;5101903;28;20028;-66
2020/12/30 11:17:33;;;;;;;4.00;2.08;;;10.90;66.70;;;;;;5102371;28;20032;-66
2020/12/30 11:19:59;;;;;;;2.92;1.90;;;10.90;66.70;;;;;;5102299;28;20016;-68
2020/12/30 11:22:25;;;;;;;2.40;1.73;;;10.90;66.30;;;;;;5102268;28;20023;-66
2020/12/30 11:24:51;;;;;;;3.17;1.98;;;11.00;66.40;;;;;;5102241;28;20016;-67
2020/12/30 11:27:17;;;;;;;2.17;1.75;;;11.00;66.50;;;;;;5102434;28;20181;-66
2020/12/30 11:29:43;;;;;;;2.33;2.03;;;11.00;66.30;;;;;;5102183;28;20109;-65
2020/12/30 11:32:09;;;;;;;2.80;2.05;;;11.00;67.10;;;;;;5102155;28;20031;-65
2020/12/30 11:34:35;;;;;;;2.20;1.98;;;11.00;66.60;;;;;;5102104;28;20268;-68
2020/12/30 11:37:01;;;;;;;2.95;2.25;;;10.90;66.50;;;;;;5102155;28;20043;-65
2020/12/30 11:39:27;;;;;;;3.30;2.15;;;10.90;66.80;;;;;;5102127;28;20050;-66
2020/12/30 11:41:53;;;;;;;2.28;1.77;;;10.90;66.80;;;;;;5102106;28;20032;-66
2020/12/30 11:44:20;;;;;;;3.70;2.40;;;10.90;66.70;;;;;;5102124;28;20023;-67
2020/12/30 11:46:52;;;;;;;2.67;1.88;;;10.90;66.50;;;;;;5102133;28;20012;-67
2020/12/30 11:49:19;;;;;;;2.10;1.90;;;10.90;66.40;;;;;;5102048;28;20066;-65
2020/12/30 11:51:45;;;;;;;2.83;2.33;;;10.90;66.70;;;;;;5102050;28;20016;-67
2020/12/30 11:54:11;;;;;;;2.80;2.22;;;10.90;66.40;;;;;;5102014;28;20329;-67
2020/12/30 11:56:36;;;;;;;2.95;2.05;;;11.00;66.50;;;;;;5101959;28;20094;-67
2020/12/30 11:59:02;;;;;;;2.20;1.98;;;11.00;66.60;;;;;;5101931;28;20024;-63
2020/12/30 12:01:34;;;;;;;2.50;2.20;;;10.90;66.60;;;;;;5101878;28;20056;-66
2020/12/30 12:04:00;;;;;;;3.40;2.60;;;11.00;66.70;;;;;;5101891;28;20020;-68
2020/12/30 12:06:27;;;;;;;3.38;2.53;;;10.90;67.20;;;;;;5101912;28;20151;-66
2020/12/30 12:08:53;;;;;;;3.20;2.60;;;10.90;66.90;;;;;;5101749;28;20040;-65
2020/12/30 12:11:19;;;;;;;2.40;2.08;;;10.90;67.00;;;;;;5101809;28;20020;-66
2020/12/30 12:13:45;;;;;;;3.65;2.17;;;10.90;67.10;;;;;;5101769;28;20019;-65
2020/12/30 12:16:12;;;;;;;2.75;1.88;;;10.90;66.90;;;;;;5101759;28;20020;-66
2020/12/30 12:18:38;;;;;;;2.55;2.03;;;10.90;66.80;;;;;;5101756;28;20028;-63
2020/12/30 12:21:04;;;;;;;2.65;2.17;;;10.90;67.60;;;;;;5117569;28;20235;-67
2020/12/30 12:23:30;;;;;;;2.90;2.03;;;11.00;66.60;;;;;;5101737;28;20044;-67
2020/12/30 12:25:56;;;;;;;2.65;2.45;;;11.00;66.70;;;;;;5101753;28;20099;-68
2020/12/30 12:28:57;;;;;;;2.72;2.03;;;11.00;66.50;;;;;;5104425;28;20232;-63
2020/12/30 12:31:23;;;;;;;3.45;2.53;;;11.00;66.60;;;;;;5105379;28;20091;-65
2020/12/30 12:33:49;;;;;;;3.75;2.60;;;11.00;66.80;;;;;;5105284;28;20027;-65
2020/12/30 12:36:16;;;;;;;2.60;2.03;;;11.00;66.90;;;;;;5105238;28;20040;-65
2020/12/30 12:38:43;;;;;;;3.42;2.22;;;11.00;67.00;;;;;;5105199;28;20103;-64
2020/12/30 12:41:09;;;;;;;3.25;2.15;;;10.90;66.70;;;;;;5105219;28;20024;-65
2020/12/30 12:43:35;;;;;;;2.28;1.67;;;10.90;67.00;;;;;;5105079;28;20027;-65
2020/12/30 12:46:02;;;;;;;2.35;1.95;;;10.90;67.00;;;;;;5105069;28;20039;-68
2020/12/30 12:48:28;;;;;;;2.67;2.20;;;10.90;66.90;;;;;;5104905;28;20024;-64
2020/12/30 12:50:53;;;;;;;2.47;2.08;;;10.90;66.90;;;;;;5120785;28;20034;-66
2020/12/30 12:53:19;;;;;;;3.00;2.25;;;11.00;66.60;;;;;;5104933;28;20027;-67